Time;durP1;ratioP1;P1;durP2;ratioP2;P2;SDS_P1;SDS_P2;PMS_P1;PMS_P2;Temp;Humidity;BMP_temperature;BMP_pressure;BME280_temperature;BME280_humidity;BME280_pressure;Samples;Min_cycle;Max_cycle;Signal;HPM_P1;HPM_P2
2022/07/15 00:00:07;;;;;;;1.08;0.43;;;;;;;18.92;55.58;100155.50;5036349;28;20047;-63
2022/07/15 00:02:32;;;;;;;1.35;0.40;;;;;;;18.93;55.57;100153.69;5036490;28;20047;-63
2022/07/15 00:04:57;;;;;;;1.52;0.40;;;;;;;18.97;55.59;100141.06;5053708;28;20033;-63
2022/07/15 00:07:23;;;;;;;0.98;0.50;;;;;;;19.20;54.99;100143.19;5036168;28;20025;-63
2022/07/15 00:12:32;;;;;;;1.90;0.47;;;;;;;19.33;54.71;100149.47;5054209;28;20542;-63
2022/07/15 00:14:58;;;;;;;1.48;0.60;;;;;;;19.17;55.12;100143.38;5053620;28;20037;-63
2022/07/15 00:17:24;;;;;;;4.72;0.60;;;;;;;19.20;54.96;100143.19;5036335;28;20029;-63
2022/07/15 00:19:50;;;;;;;0.77;0.40;;;;;;;19.21;54.61;100136.91;5052400;28;20035;-63
2022/07/15 00:22:15;;;;;;;1.83;0.50;;;;;;;19.25;54.80;100141.09;5035999;28;20449;-63
2022/07/15 00:24:40;;;;;;;0.82;0.30;;;;;;;18.92;55.46;100141.34;5053434;28;20025;-63
2022/07/15 00:27:06;;;;;;;0.63;0.30;;;;;;;18.95;55.46;100144.69;5053620;28;20090;-63
2022/07/15 00:29:31;;;;;;;2.38;0.30;;;;;;;19.01;55.25;100148.78;5053555;28;20049;-63
2022/07/15 00:31:57;;;;;;;0.80;0.30;;;;;;;19.03;55.25;100148.66;5052688;28;20037;-63
2022/07/15 00:34:23;;;;;;;1.02;0.30;;;;;;;19.03;55.28;100141.56;5036083;28;20190;-64
2022/07/15 00:36:48;;;;;;;2.78;0.60;;;;;;;18.85;55.87;100151.50;5053670;28;20029;-63
2022/07/15 00:39:14;;;;;;;3.03;0.50;;;;;;;18.64;56.36;100142.09;5035749;28;20411;-64
2022/07/15 00:41:41;;;;;;;1.52;0.40;;;;;;;18.50;56.79;100145.53;5035674;28;20040;-64
2022/07/15 00:44:07;;;;;;;1.80;0.30;;;;;;;18.17;57.54;100140.38;5019220;28;20056;-64
2022/07/15 00:46:35;;;;;;;1.42;0.45;;;;;;;17.95;58.67;100152.22;5035477;28;20494;-63
2022/07/15 00:49:03;;;;;;;1.67;0.47;;;;;;;17.89;58.93;100144.59;5035600;28;20476;-63
2022/07/15 00:51:35;;;;;;;1.17;0.50;;;;;;;17.86;59.58;100146.53;5053453;28;20032;-64
2022/07/15 00:54:02;;;;;;;0.70;0.30;;;;;;;17.95;58.91;100144.25;5035379;28;20106;-64
2022/07/15 00:56:30;;;;;;;1.65;0.43;;;;;;;17.58;60.31;100152.47;5035469;28;20037;-64
2022/07/15 00:58:59;;;;;;;1.30;0.50;;;;;;;17.56;60.26;100154.38;5035435;28;20044;-64
2022/07/15 01:01:25;;;;;;;5.97;0.52;;;;;;;17.61;60.21;100157.63;5035543;28;20048;-64
2022/07/15 01:03:53;;;;;;;1.02;0.40;;;;;;;17.56;60.67;100154.38;5053368;28;21959;-63
2022/07/15 01:06:18;;;;;;;1.58;0.40;;;;;;;17.65;60.34;100164.50;5053023;28;20032;-64
2022/07/15 01:08:44;;;;;;;2.33;0.40;;;;;;;17.86;59.55;100162.50;5035661;28;20025;-63
2022/07/15 01:11:09;;;;;;;1.88;0.50;;;;;;;17.79;59.70;100171.75;5054540;28;20367;-63
2022/07/15 01:13:35;;;;;;;1.33;0.35;;;;;;;17.66;60.32;100166.22;5057036;28;20032;-63
2022/07/15 01:16:00;;;;;;;1.20;0.43;;;;;;;17.56;60.69;100165.00;5057104;28;20021;-63
2022/07/15 01:18:26;;;;;;;1.80;0.40;;;;;;;17.47;60.82;100161.91;5039344;28;20422;-64
2022/07/15 01:20:51;;;;;;;1.65;0.50;;;;;;;17.37;61.29;100160.66;5039279;28;20057;-64
2022/07/15 01:23:18;;;;;;;2.15;0.60;;;;;;;17.61;60.62;100166.47;5038910;28;20423;-64
2022/07/15 01:25:44;;;;;;;1.60;0.30;;;;;;;17.76;60.22;100166.63;5056871;28;20021;-64
2022/07/15 01:28:10;;;;;;;1.35;0.40;;;;;;;17.78;60.21;100172.69;5039287;28;20371;-63
2022/07/15 01:30:36;;;;;;;1.80;0.55;;;;;;;17.75;60.43;100176.34;5056880;28;20111;-64
2022/07/15 01:33:01;;;;;;;0.68;0.30;;;;;;;17.87;60.00;100165.09;5038858;28;20420;-64
2022/07/15 01:35:28;;;;;;;1.85;0.50;;;;;;;17.86;60.09;100183.75;5056767;28;20095;-64
2022/07/15 01:37:53;;;;;;;1.60;0.50;;;;;;;17.91;59.96;100181.69;5038824;28;20068;-63
2022/07/15 01:40:19;;;;;;;1.88;0.70;;;;;;;17.92;60.15;100178.97;5056860;28;20067;-63
2022/07/15 01:42:44;;;;;;;0.95;0.40;;;;;;;17.85;60.31;100179.38;5056801;28;20352;-64
2022/07/15 01:45:10;;;;;;;1.80;0.40;;;;;;;18.01;59.88;100166.13;5056468;28;20345;-64
2022/07/15 01:47:47;;;;;;;4.80;0.70;;;;;;;17.68;61.61;100180.28;5056523;28;20486;-63
2022/07/15 01:50:13;;;;;;;2.67;0.68;;;;;;;17.61;61.16;100176.22;5038668;28;20033;-64
2022/07/15 01:52:39;;;;;;;2.13;0.50;;;;;;;17.52;61.58;100168.78;5022113;28;20040;-64
2022/07/15 01:55:06;;;;;;;1.55;0.30;;;;;;;17.45;61.60;100169.09;5056150;28;20075;-63
2022/07/15 01:57:32;;;;;;;4.43;0.50;;;;;;;17.32;62.31;100170.69;5038334;28;20052;-63
2022/07/15 01:59:57;;;;;;;1.77;0.52;;;;;;;17.28;62.17;100181.56;5038547;28;20041;-63
2022/07/15 02:02:23;;;;;;;1.55;0.52;;;;;;;17.15;62.74;100182.16;5056323;28;20033;-63
2022/07/15 02:04:48;;;;;;;1.67;0.40;;;;;;;17.18;62.51;100175.84;5055976;28;20124;-63
2022/07/15 02:07:14;;;;;;;2.03;0.47;;;;;;;17.15;62.73;100176.00;5054887;28;20040;-63
2022/07/15 02:09:39;;;;;;;2.33;0.60;;;;;;;17.13;63.27;100176.09;5056136;28;20028;-63
2022/07/15 02:12:06;;;;;;;2.58;0.70;;;;;;;17.16;62.48;100170.63;5021672;28;20030;-63
2022/07/15 02:14:32;;;;;;;2.75;0.60;;;;;;;17.05;63.29;100170.31;5038241;28;20345;-63
2022/07/15 02:16:57;;;;;;;4.25;0.52;;;;;;;17.32;62.31;100164.53;5054775;28;20139;-63
2022/07/15 02:19:23;;;;;;;1.85;0.50;;;;;;;17.64;61.13;100165.44;5056110;28;20364;-63
2022/07/15 02:21:48;;;;;;;1.55;0.60;;;;;;;17.66;61.55;100160.91;5055118;28;20040;-63
2022/07/15 02:24:14;;;;;;;1.45;0.50;;;;;;;17.81;60.64;100156.59;5037167;28;20534;-63
2022/07/15 02:26:40;;;;;;;1.55;0.40;;;;;;;17.90;60.58;100159.56;5056082;28;20481;-64
2022/07/15 02:29:06;;;;;;;0.90;0.40;;;;;;;17.94;60.31;100147.84;5037877;28;20163;-63
2022/07/15 02:31:31;;;;;;;3.47;0.70;;;;;;;17.71;61.28;100165.03;5038123;28;20112;-64
2022/07/15 02:33:57;;;;;;;4.35;0.50;;;;;;;17.82;60.52;100159.16;5037698;28;20033;-64
2022/07/15 02:36:22;;;;;;;0.60;0.40;;;;;;;17.52;61.57;100158.16;5055669;28;20028;-63
2022/07/15 02:38:48;;;;;;;2.75;0.50;;;;;;;17.67;61.11;100152.84;5055844;28;20117;-64
2022/07/15 02:41:13;;;;;;;2.70;0.50;;;;;;;17.44;61.89;100158.56;5037596;28;20083;-64
2022/07/15 02:43:41;;;;;;;1.35;0.43;;;;;;;17.64;61.13;100162.78;5037701;28;20021;-64
2022/07/15 02:46:09;;;;;;;2.15;0.50;;;;;;;17.17;62.71;100161.72;5055475;28;20024;-63
2022/07/15 02:48:36;;;;;;;3.17;0.57;;;;;;;17.07;62.74;100162.28;5053832;28;20032;-63
2022/07/15 02:51:01;;;;;;;1.75;0.70;;;;;;;17.17;62.40;100158.22;5055373;28;20025;-63
2022/07/15 02:53:28;;;;;;;2.15;0.40;;;;;;;17.08;62.52;100164.88;5055050;28;20029;-63
2022/07/15 02:55:55;;;;;;;1.65;0.57;;;;;;;17.17;62.28;100163.53;5037741;28;20040;-63
2022/07/15 02:58:22;;;;;;;1.13;0.45;;;;;;;17.21;62.21;100165.94;5036909;28;20033;-63
2022/07/15 03:00:48;;;;;;;1.77;0.50;;;;;;;17.37;61.75;100160.66;5037505;28;20116;-63
2022/07/15 03:03:13;;;;;;;0.88;0.40;;;;;;;17.42;61.81;100166.59;5037100;28;20586;-63
2022/07/15 03:05:39;;;;;;;1.35;0.40;;;;;;;17.46;61.63;100161.97;5055280;28;20041;-63
2022/07/15 03:08:04;;;;;;;1.80;0.60;;;;;;;17.21;62.22;100155.31;5055076;28;20437;-63
2022/07/15 03:10:30;;;;;;;2.80;0.60;;;;;;;17.12;62.66;100155.81;5055187;28;20029;-63
2022/07/15 03:12:55;;;;;;;1.70;0.50;;;;;;;17.03;62.96;100176.63;5037355;28;20463;-64
2022/07/15 03:15:21;;;;;;;1.33;0.40;;;;;;;17.24;62.15;100171.09;5054898;28;20132;-63
2022/07/15 03:17:46;;;;;;;1.38;0.50;;;;;;;17.13;62.64;100177.88;5036878;28;20078;-64
2022/07/15 03:20:11;;;;;;;2.22;0.45;;;;;;;17.08;62.57;100182.59;5037143;28;20029;-63
2022/07/15 03:22:37;;;;;;;2.55;0.65;;;;;;;16.75;63.76;100188.66;5037132;28;20197;-63
2022/07/15 03:25:03;;;;;;;1.73;0.40;;;;;;;16.74;63.71;100187.78;5054532;28;20016;-64
2022/07/15 03:27:28;;;;;;;2.15;0.52;;;;;;;17.01;62.94;100183.84;5054872;28;20028;-63
2022/07/15 03:29:54;;;;;;;2.80;0.75;;;;;;;17.10;62.50;100189.50;5054621;28;20415;-63
2022/07/15 03:32:20;;;;;;;1.45;0.55;;;;;;;17.20;62.33;100189.91;5054313;28;20040;-64
2022/07/15 03:34:46;;;;;;;1.13;0.52;;;;;;;16.97;62.88;100191.94;5036083;28;20091;-64
2022/07/15 03:37:12;;;;;;;1.20;0.63;;;;;;;17.40;61.75;100192.38;5036559;28;20360;-63
2022/07/15 03:39:38;;;;;;;1.90;0.60;;;;;;;17.45;61.82;100190.34;5054246;28;20032;-64
2022/07/15 03:42:03;;;;;;;1.83;0.52;;;;;;;17.71;60.84;100186.28;5054441;28;20047;-63
2022/07/15 03:44:29;;;;;;;2.28;0.65;;;;;;;17.56;61.53;100189.78;5036406;28;20025;-63
2022/07/15 03:46:54;;;;;;;2.78;0.50;;;;;;;17.82;60.58;100193.69;5054183;28;20033;-63
2022/07/15 03:49:20;;;;;;;1.92;0.50;;;;;;;18.05;60.14;100194.25;5054241;28;20032;-64
2022/07/15 03:51:45;;;;;;;2.17;0.60;;;;;;;17.88;60.48;100203.16;5036203;28;20040;-63
2022/07/15 03:54:14;;;;;;;2.83;0.57;;;;;;;17.81;60.67;100199.09;5054313;28;20095;-64
2022/07/15 03:56:39;;;;;;;1.70;0.65;;;;;;;17.84;60.38;100207.78;5036421;28;20029;-63
2022/07/15 03:59:06;;;;;;;2.38;0.55;;;;;;;17.86;60.35;100200.56;5036082;28;20419;-64
2022/07/15 04:01:32;;;;;;;1.08;0.40;;;;;;;18.15;59.54;100196.31;5036114;28;20025;-64
2022/07/15 04:03:58;;;;;;;3.67;0.60;;;;;;;17.96;59.95;100201.78;5036504;28;20052;-63
2022/07/15 04:06:24;;;;;;;1.70;0.50;;;;;;;17.59;60.98;100208.19;5053937;28;20424;-63
2022/07/15 04:08:50;;;;;;;2.47;0.57;;;;;;;17.42;61.35;100205.56;5036023;28;20029;-63
2022/07/15 04:11:15;;;;;;;1.48;0.50;;;;;;;17.36;61.74;100213.88;5035939;28;20124;-64
2022/07/15 04:13:41;;;;;;;1.05;0.40;;;;;;;17.54;61.39;100198.75;5053690;28;20108;-63
2022/07/15 04:16:08;;;;;;;1.95;0.40;;;;;;;17.50;61.34;100198.06;5053747;28;20086;-63
2022/07/15 04:18:34;;;;;;;5.30;0.68;;;;;;;17.49;61.26;100199.00;5036717;28;20508;-63
2022/07/15 04:21:00;;;;;;;2.08;0.60;;;;;;;17.79;60.52;100200.97;5052557;28;20024;-63
2022/07/15 04:23:25;;;;;;;2.22;0.63;;;;;;;17.58;61.04;100206.47;5035820;28;20029;-63
2022/07/15 04:25:52;;;;;;;1.05;0.50;;;;;;;17.45;61.40;100200.97;5053518;28;20055;-63
2022/07/15 04:28:22;;;;;;;2.20;0.40;;;;;;;17.66;60.77;100214.03;5053600;28;20032;-63
2022/07/15 04:30:49;;;;;;;2.70;0.50;;;;;;;18.01;59.81;100220.13;5053608;28;20025;-63
2022/07/15 04:33:14;;;;;;;2.33;0.60;;;;;;;18.18;59.23;100208.56;5052628;28;20021;-63
2022/07/15 04:35:40;;;;;;;1.33;0.40;;;;;;;18.35;58.99;100208.50;5052292;28;20368;-63
2022/07/15 04:38:05;;;;;;;0.75;0.40;;;;;;;17.94;59.80;100216.94;5053518;28;20036;-63
2022/07/15 04:40:34;;;;;;;2.55;0.70;;;;;;;18.28;58.99;100209.78;5053569;28;20426;-63
2022/07/15 04:42:59;;;;;;;1.83;0.68;;;;;;;18.24;59.22;100194.94;5035639;28;20050;-63
2022/07/15 04:45:26;;;;;;;3.05;0.60;;;;;;;18.75;57.72;100203.56;5053412;28;20444;-63
2022/07/15 04:47:51;;;;;;;2.97;0.70;;;;;;;18.65;58.05;100205.84;5023311;28;20035;-63
2022/07/15 04:53:01;;;;;;;3.97;0.50;;;;;;;18.53;58.18;100208.38;5057762;28;20040;-63
2022/07/15 04:55:26;;;;;;;2.50;0.50;;;;;;;18.54;57.64;100218.06;5039686;28;20107;-63
2022/07/15 04:57:52;;;;;;;2.05;0.40;;;;;;;18.50;57.76;100200.56;5057229;28;20086;-63
2022/07/15 05:00:18;;;;;;;3.38;0.60;;;;;;;18.57;57.49;100212.56;5039428;28;20068;-63
2022/07/15 05:02:43;;;;;;;1.60;0.55;;;;;;;18.64;57.41;100208.63;5057650;28;20033;-63
2022/07/15 05:05:09;;;;;;;2.33;0.60;;;;;;;18.28;58.07;100208.91;5057319;28;20067;-63
2022/07/15 05:07:34;;;;;;;2.20;0.43;;;;;;;18.21;58.33;100203.06;5057286;28;20112;-63
2022/07/15 05:10:00;;;;;;;2.38;0.45;;;;;;;17.82;59.34;100220.25;5057222;28;20032;-63
2022/07/15 05:12:25;;;;;;;2.63;0.70;;;;;;;18.18;58.37;100213.88;5057176;28;20024;-63
2022/07/15 05:14:54;;;;;;;4.50;0.60;;;;;;;17.98;58.69;100214.97;5022751;28;20044;-63
2022/07/15 05:17:19;;;;;;;1.65;0.40;;;;;;;18.27;58.11;100218.66;5057003;28;20029;-63
2022/07/15 05:19:45;;;;;;;2.30;0.70;;;;;;;18.34;57.79;100216.53;5057122;28;20032;-63
2022/07/15 05:22:11;;;;;;;2.35;0.70;;;;;;;18.11;58.02;100220.47;5039412;28;20033;-63
2022/07/15 05:24:36;;;;;;;2.47;0.50;;;;;;;18.28;57.94;100239.03;5056657;28;20377;-63
2022/07/15 05:27:02;;;;;;;1.17;0.40;;;;;;;18.26;57.82;100229.41;5056843;28;20040;-63
2022/07/15 05:29:28;;;;;;;3.60;0.63;;;;;;;18.52;57.30;100238.59;5056710;28;20040;-64
2022/07/15 05:31:54;;;;;;;3.08;0.60;;;;;;;18.79;56.49;100233.50;5056803;28;20480;-63
2022/07/15 05:34:19;;;;;;;2.38;0.50;;;;;;;19.14;55.69;100236.75;5056692;28;20029;-63
2022/07/15 05:36:45;;;;;;;2.60;0.75;;;;;;;19.10;55.51;100235.22;5056707;28;20025;-63
2022/07/15 05:39:10;;;;;;;2.78;0.60;;;;;;;19.17;55.70;100241.91;5038939;28;20032;-63
2022/07/15 05:41:36;;;;;;;3.05;0.80;;;;;;;18.99;56.19;100253.63;5056571;28;20064;-63
2022/07/15 05:44:02;;;;;;;3.70;0.80;;;;;;;19.30;55.13;100250.03;5056543;28;20112;-63
2022/07/15 05:46:28;;;;;;;2.45;0.68;;;;;;;20.00;53.69;100250.22;5022277;28;20084;-63
2022/07/15 05:48:53;;;;;;;4.28;0.50;;;;;;;19.79;54.26;100247.94;5056269;28;20116;-63
2022/07/15 05:51:19;;;;;;;3.53;0.73;;;;;;;19.97;53.53;100245.94;5056372;28;20112;-64
2022/07/15 05:53:44;;;;;;;1.27;0.38;;;;;;;19.51;54.26;100246.09;5055237;28;20381;-63
2022/07/15 05:56:10;;;;;;;2.20;0.45;;;;;;;19.56;54.37;100241.31;5038436;28;20115;-63
2022/07/15 05:58:36;;;;;;;3.38;0.60;;;;;;;19.41;54.02;100247.56;5055958;28;20080;-63
2022/07/15 06:01:01;;;;;;;2.90;0.55;;;;;;;19.99;53.49;100245.81;5056303;28;20059;-63
2022/07/15 06:03:27;;;;;;;3.85;0.70;;;;;;;19.52;53.88;100252.25;5056463;28;20021;-63
2022/07/15 06:05:52;;;;;;;3.60;0.57;;;;;;;18.69;55.28;100265.09;5038452;28;20419;-63
2022/07/15 06:08:18;;;;;;;3.75;0.57;;;;;;;19.25;54.18;100252.97;5056029;28;20025;-63
2022/07/15 06:10:44;;;;;;;2.03;0.52;;;;;;;20.21;51.98;100253.34;5038263;28;20116;-63
2022/07/15 06:13:10;;;;;;;2.25;0.50;;;;;;;20.79;50.57;100266.47;5037958;28;20112;-63
2022/07/15 06:15:36;;;;;;;4.78;1.08;;;;;;;20.20;51.38;100265.81;5038271;28;20064;-63
2022/07/15 06:18:02;;;;;;;4.78;0.88;;;;;;;19.77;52.85;100262.31;5056033;28;20029;-64
2022/07/15 06:20:28;;;;;;;2.13;0.80;;;;;;;19.76;52.09;100274.78;5055943;28;20104;-63
2022/07/15 06:22:53;;;;;;;3.08;1.05;;;;;;;19.46;53.21;100272.13;5054591;28;20079;-63
2022/07/15 06:25:20;;;;;;;3.78;0.77;;;;;;;19.65;52.81;100271.91;5055752;28;20062;-64
2022/07/15 06:27:45;;;;;;;3.17;0.60;;;;;;;20.29;51.33;100270.56;5037838;28;20025;-64
2022/07/15 06:30:11;;;;;;;5.95;1.20;;;;;;;19.70;52.21;100264.47;5055491;28;20055;-64
2022/07/15 06:32:37;;;;;;;2.65;0.82;;;;;;;19.71;52.03;100268.88;5055758;28;20035;-64
2022/07/15 06:35:03;;;;;;;5.13;1.02;;;;;;;19.49;52.92;100268.44;5055756;28;20131;-64
2022/07/15 06:37:28;;;;;;;3.80;0.75;;;;;;;19.31;53.31;100260.59;5055683;28;20107;-64
2022/07/15 06:39:55;;;;;;;1.30;0.55;;;;;;;19.38;53.16;100280.56;5055708;28;20033;-63
2022/07/15 06:42:22;;;;;;;3.00;0.80;;;;;;;19.23;53.46;100275.31;5055452;28;20029;-63
2022/07/15 06:44:48;;;;;;;2.63;0.68;;;;;;;19.49;53.05;100285.28;5037744;28;20340;-64
2022/07/15 06:47:13;;;;;;;6.47;0.60;;;;;;;19.27;52.38;100279.50;5021135;28;20033;-63
2022/07/15 06:49:39;;;;;;;5.75;0.70;;;;;;;19.25;52.74;100294.72;5055501;28;20029;-63
2022/07/15 06:52:05;;;;;;;2.60;0.52;;;;;;;19.97;50.65;100293.91;5055325;28;20029;-60
2022/07/15 06:54:31;;;;;;;6.75;0.60;;;;;;;20.36;49.45;100279.03;5037391;28;20025;-61
2022/07/15 06:56:57;;;;;;;2.80;0.70;;;;;;;20.32;49.28;100289.06;5055125;28;20035;-61
2022/07/15 06:59:23;;;;;;;3.85;0.52;;;;;;;20.30;49.61;100274.09;5037751;28;20400;-61
2022/07/15 07:01:50;;;;;;;3.65;0.80;;;;;;;20.35;49.13;100270.19;5054243;28;20064;-61
2022/07/15 07:04:15;;;;;;;1.83;0.40;;;;;;;20.81;48.50;100279.72;5053896;28;20021;-61
2022/07/15 07:06:41;;;;;;;2.53;0.40;;;;;;;21.37;47.12;100254.56;5037531;28;20471;-62
2022/07/15 07:09:06;;;;;;;3.17;0.68;;;;;;;21.61;46.66;100269.88;5053863;28;20445;-62
2022/07/15 07:11:32;;;;;;;4.00;0.60;;;;;;;21.65;45.99;100271.38;5037240;28;20021;-61
2022/07/15 07:14:01;;;;;;;5.90;0.60;;;;;;;21.39;45.47;100274.03;5036997;28;20025;-61
2022/07/15 07:16:26;;;;;;;4.78;0.60;;;;;;;21.32;46.46;100271.84;5054879;28;20487;-61
2022/07/15 07:18:54;;;;;;;3.42;0.60;;;;;;;21.23;46.52;100292.03;5054847;28;20025;-62
2022/07/15 07:21:20;;;;;;;3.78;0.60;;;;;;;20.98;46.29;100290.13;5054761;28;20025;-62
2022/07/15 07:23:46;;;;;;;2.10;0.57;;;;;;;21.05;46.08;100294.09;5037556;28;20048;-61
2022/07/15 07:26:15;;;;;;;4.60;0.75;;;;;;;21.28;46.49;100297.91;5054713;28;20058;-61
2022/07/15 07:28:40;;;;;;;2.83;0.43;;;;;;;21.23;46.63;100297.38;5036741;28;20029;-61
2022/07/15 07:31:08;;;;;;;3.00;0.70;;;;;;;21.51;45.84;100287.53;5054367;28;20044;-61
2022/07/15 07:33:34;;;;;;;2.15;0.50;;;;;;;21.58;45.31;100296.81;5036768;28;20599;-61
2022/07/15 07:35:59;;;;;;;3.20;0.70;;;;;;;21.80;45.58;100307.75;5036367;28;20085;-61
2022/07/15 07:38:25;;;;;;;4.13;0.98;;;;;;;21.65;45.11;100298.09;5054209;28;20108;-61
2022/07/15 07:40:50;;;;;;;2.55;0.40;;;;;;;21.99;45.13;100311.81;5037057;28;20047;-61
2022/07/15 07:43:17;;;;;;;2.92;0.50;;;;;;;21.87;45.24;100303.69;5054346;28;20113;-61
2022/07/15 07:45:43;;;;;;;3.45;0.63;;;;;;;21.73;45.56;100301.09;5036563;28;20463;-61
2022/07/15 07:48:09;;;;;;;2.00;0.65;;;;;;;21.88;45.24;100310.75;5054357;28;20021;-61
2022/07/15 07:50:34;;;;;;;3.53;0.52;;;;;;;21.84;44.99;100317.25;5036445;28;20427;-62
2022/07/15 07:53:00;;;;;;;3.38;0.45;;;;;;;22.11;44.61;100322.50;5052763;28;20112;-61
2022/07/15 07:55:25;;;;;;;6.07;1.05;;;;;;;22.67;43.54;100314.09;5054405;28;20067;-61
2022/07/15 07:57:54;;;;;;;4.72;0.75;;;;;;;22.86;42.59;100309.09;5036432;28;20059;-61
2022/07/15 08:00:26;;;;;;;2.45;0.63;;;;;;;22.35;43.86;100321.75;5054001;28;20032;-61
2022/07/15 08:02:52;;;;;;;5.38;0.60;;;;;;;21.71;44.74;100320.91;5053760;28;20033;-61
2022/07/15 08:05:18;;;;;;;3.85;0.75;;;;;;;21.48;45.12;100341.19;5036271;28;20033;-61
2022/07/15 08:07:43;;;;;;;1.92;0.45;;;;;;;21.36;45.42;100333.03;5052763;28;20028;-61
2022/07/15 08:10:10;;;;;;;2.78;0.63;;;;;;;20.55;47.49;100341.00;5054268;28;20039;-61
2022/07/15 08:12:37;;;;;;;2.97;0.60;;;;;;;20.29;48.68;100355.94;5019734;28;20524;-61
2022/07/15 08:15:08;;;;;;;4.93;0.60;;;;;;;20.23;53.55;100337.66;5019611;28;20039;-61
2022/07/15 08:17:34;;;;;;;3.90;0.77;;;;;;;19.82;52.52;100354.38;5053967;28;20033;-61
2022/07/15 08:20:00;;;;;;;4.18;0.93;;;;;;;19.58;53.45;100362.00;5053943;28;20032;-61
2022/07/15 08:22:25;;;;;;;5.38;0.90;;;;;;;19.32;55.02;100371.53;5053815;28;20075;-61
2022/07/15 08:24:50;;;;;;;5.07;0.70;;;;;;;19.54;55.47;100372.94;5035633;28;20052;-61
2022/07/15 08:27:17;;;;;;;4.07;0.80;;;;;;;19.78;55.72;100373.31;5054140;28;20025;-61
2022/07/15 08:29:43;;;;;;;3.95;0.60;;;;;;;19.85;55.28;100364.84;5035914;28;20029;-61
2022/07/15 08:32:09;;;;;;;2.50;0.68;;;;;;;20.12;54.51;100373.00;5035626;28;20032;-62
2022/07/15 08:34:35;;;;;;;5.05;0.80;;;;;;;19.98;54.87;100382.78;5035752;28;20035;-61
2022/07/15 08:37:00;;;;;;;2.40;0.70;;;;;;;19.85;56.43;100383.50;5053363;28;20384;-61
2022/07/15 08:39:26;;;;;;;5.78;0.82;;;;;;;23.43;52.10;100381.75;5053654;28;20037;-61
2022/07/15 08:41:52;;;;;;;7.30;1.13;;;;;;;21.95;51.45;100386.06;5053447;28;20083;-61
2022/07/15 08:44:18;;;;;;;2.97;0.70;;;;;;;21.62;52.90;100383.84;5035611;28;20115;-61
2022/07/15 08:46:48;;;;;;;4.30;0.60;;;;;;;20.87;54.57;100395.00;5053828;28;20079;-61
2022/07/15 08:49:18;;;;;;;5.53;1.08;;;;;;;20.71;56.22;100388.06;5035651;28;20078;-62
2022/07/15 08:51:46;;;;;;;1.85;0.60;;;;;;;20.73;54.99;100400.34;5053785;28;20029;-61
2022/07/15 08:54:14;;;;;;;6.10;1.00;;;;;;;20.77;54.91;100396.53;5052403;28;20032;-62
2022/07/15 08:56:40;;;;;;;5.13;1.70;;;;;;;21.14;55.12;100412.84;5018697;28;20025;-61
2022/07/15 08:59:07;;;;;;;3.95;1.13;;;;;;;20.46;56.22;100415.41;5015590;28;20384;-60
2022/07/15 09:01:34;;;;;;;10.40;1.35;;;;;;;20.69;56.42;100408.66;5032118;28;20043;-60
2022/07/15 09:04:00;;;;;;;3.88;0.70;;;;;;;20.76;55.78;100429.53;5031886;28;20108;-60
2022/07/15 09:06:40;;;;;;;7.00;1.15;;;;;;;20.26;55.99;100430.81;5031875;28;20457;-59
2022/07/15 09:09:22;;;;;;;2.15;0.75;;;;;;;20.22;59.87;100429.28;5032279;28;20025;-61
2022/07/15 09:11:54;;;;;;;3.60;0.60;;;;;;;20.38;59.94;100424.72;5033304;28;20030;-61
2022/07/15 09:14:21;;;;;;;3.78;0.77;;;;;;;19.90;59.48;100410.75;5033280;28;20056;-61
2022/07/15 09:16:46;;;;;;;3.75;0.80;;;;;;;19.75;59.68;100406.34;5032955;28;20356;-60
2022/07/15 09:19:12;;;;;;;3.00;0.70;;;;;;;19.22;60.04;100415.63;5015541;28;20116;-60
2022/07/15 09:21:42;;;;;;;4.78;0.70;;;;;;;19.28;60.63;100407.28;5033343;28;20067;-60
2022/07/15 09:24:20;;;;;;;3.65;0.98;;;;;;;19.33;58.98;100415.88;5033149;28;20028;-61
2022/07/15 09:26:46;;;;;;;2.60;0.60;;;;;;;19.57;58.81;100415.41;5032870;28;20032;-61
2022/07/15 09:35:04;;;;;;;3.38;0.70;;;;;;;20.74;55.33;100409.22;5031503;28;20179;-61
2022/07/15 09:37:31;;;;;;;2.47;0.55;;;;;;;20.78;54.37;100429.41;5035950;28;20076;-61
2022/07/15 09:39:57;;;;;;;6.95;0.70;;;;;;;20.45;54.54;100405.69;5035540;28;20037;-61
2022/07/15 09:42:23;;;;;;;4.82;0.90;;;;;;;20.82;53.99;100405.09;5019017;28;20116;-60
2022/07/15 09:44:50;;;;;;;4.10;0.60;;;;;;;20.58;52.15;100412.00;5051984;28;20033;-60
2022/07/15 09:47:22;;;;;;;3.72;0.80;;;;;;;20.47;52.69;100403.75;5051861;28;20034;-60
2022/07/15 09:49:48;;;;;;;1.83;0.50;;;;;;;21.26;51.62;100403.19;5035222;28;20087;-60
2022/07/15 09:52:14;;;;;;;3.67;0.75;;;;;;;21.10;50.94;100414.84;5035367;28;20068;-60
2022/07/15 09:54:48;;;;;;;4.63;0.82;;;;;;;21.59;50.27;100411.69;5035246;28;20048;-61
2022/07/15 09:57:18;;;;;;;3.30;0.60;;;;;;;21.36;49.82;100405.19;5031582;28;20053;-61
2022/07/15 09:59:46;;;;;;;5.47;0.90;;;;;;;21.64;49.16;100403.34;5031831;28;20548;-61
2022/07/15 10:02:12;;;;;;;4.53;0.80;;;;;;;21.46;48.85;100415.25;5031630;28;20457;-61
2022/07/15 10:04:38;;;;;;;3.90;0.98;;;;;;;21.82;48.41;100409.25;4998914;28;20030;-60
2022/07/15 10:07:04;;;;;;;4.43;0.88;;;;;;;22.03;47.48;100397.09;4998863;28;20029;-60
2022/07/15 10:09:35;;;;;;;6.70;0.80;;;;;;;22.66;45.82;100407.91;5016559;28;20045;-60
2022/07/15 10:12:03;;;;;;;2.50;0.50;;;;;;;23.30;44.66;100403.22;5015098;28;20022;-60
2022/07/15 10:14:46;;;;;;;4.18;0.75;;;;;;;23.66;43.83;100396.09;5015128;28;20030;-60
2022/07/15 10:17:39;;;;;;;3.47;0.70;;;;;;;23.60;43.37;100411.66;5032246;28;20030;-60
2022/07/15 10:20:42;;;;;;;2.75;0.80;;;;;;;23.84;42.20;100408.13;5016368;28;20568;-60
2022/07/15 10:23:45;;;;;;;5.07;1.02;;;;;;;23.32;41.69;100409.34;5016333;28;20025;-61
2022/07/15 10:26:17;;;;;;;2.30;0.60;;;;;;;22.93;42.26;100399.72;5015014;28;20033;-60
2022/07/15 10:28:48;;;;;;;3.50;0.68;;;;;;;23.22;43.02;100409.19;5014879;28;20072;-61
2022/07/15 10:31:26;;;;;;;4.18;0.93;;;;;;;23.52;42.03;100403.34;5015985;28;20056;-61
2022/07/15 10:34:06;;;;;;;4.78;0.80;;;;;;;24.05;41.65;100402.94;5031310;28;20052;-61
2022/07/15 10:36:47;;;;;;;5.13;0.90;;;;;;;24.57;40.99;100404.22;5015079;28;20022;-60
2022/07/15 10:39:18;;;;;;;6.13;0.70;;;;;;;24.57;40.30;100418.50;5015650;28;20074;-60
2022/07/15 10:41:46;;;;;;;5.75;0.90;;;;;;;24.15;40.59;100414.66;4998422;28;20034;-61
2022/07/15 10:44:13;;;;;;;4.05;0.60;;;;;;;23.76;41.67;100415.91;5013595;28;20473;-61
2022/07/15 10:46:38;;;;;;;2.50;0.52;;;;;;;23.21;43.01;100423.53;5015046;28;20045;-61
2022/07/15 10:49:04;;;;;;;3.08;0.60;;;;;;;22.70;43.84;100420.09;5015439;28;20362;-59
2022/07/15 10:51:47;;;;;;;2.45;0.50;;;;;;;22.87;42.54;100417.94;5014377;28;20072;-60
2022/07/15 10:54:19;;;;;;;2.35;0.52;;;;;;;22.80;43.38;100430.06;5015236;28;20029;-61
2022/07/15 10:56:50;;;;;;;2.90;0.50;;;;;;;22.66;43.89;100427.53;5015819;28;20025;-61
2022/07/15 10:59:23;;;;;;;2.85;0.50;;;;;;;22.42;43.62;100429.22;5035444;28;20056;-61
2022/07/15 11:02:00;;;;;;;1.65;0.45;;;;;;;23.11;42.91;100427.88;5035273;28;20026;-61
2022/07/15 11:04:31;;;;;;;3.38;0.57;;;;;;;22.70;42.61;100431.69;5033872;28;20128;-61
2022/07/15 11:07:06;;;;;;;4.63;0.85;;;;;;;22.65;42.89;100439.19;5034089;28;20045;-61
2022/07/15 11:09:57;;;;;;;2.28;0.35;;;;;;;23.27;41.95;100425.78;5034003;28;20025;-61
2022/07/15 11:12:29;;;;;;;2.22;0.50;;;;;;;23.46;41.46;100422.59;5035099;28;20025;-61
2022/07/15 11:15:11;;;;;;;3.95;0.60;;;;;;;23.69;40.86;100426.22;5033730;28;20036;-61
2022/07/15 11:17:36;;;;;;;3.72;0.65;;;;;;;23.69;40.88;100436.97;5035545;28;20052;-61
2022/07/15 11:20:09;;;;;;;2.80;0.63;;;;;;;23.70;41.32;100425.28;5034882;28;20445;-61
2022/07/15 11:22:43;;;;;;;3.03;0.60;;;;;;;23.74;40.73;100421.41;5050307;28;20091;-61
2022/07/15 11:25:32;;;;;;;2.92;0.75;;;;;;;23.96;39.23;100427.78;5033200;28;20456;-61
2022/07/15 11:28:01;;;;;;;4.35;0.50;;;;;;;24.19;39.94;100421.50;5049877;28;20029;-61
2022/07/15 11:30:42;;;;;;;3.10;0.60;;;;;;;23.84;39.78;100422.38;5033310;28;20029;-61
2022/07/15 11:33:14;;;;;;;6.10;0.82;;;;;;;24.39;38.54;100437.94;5033475;28;20116;-61
2022/07/15 11:36:00;;;;;;;3.25;0.68;;;;;;;24.03;38.38;100431.72;5034615;28;20051;-61